YSWG/WGA METAR and TAF weather

Enter ICAO airport designator
Station Type Date Time Source
YSWG METAR 2020/09/19 05:00 UTC NOAA

YSWG 190500Z AUTO 03012KT 9999 // NCD 22/12 Q1017


Station Type Date Time Source
YSWG Decoded METAR 2020/09/19 05:00 UTC NOAA

Wagga Airport, Australia (YSWG) 35-09S 147-27E 213M
Sep 19, 2020 - 01:00 AM EDT / 2020.09.19 0500 UTC
Wind: from the NNE (030 degrees) at 14 MPH (12 KT):0
Visibility: greater than 7 mile(s):0
Temperature: 71 F (22 C)
Dew Point: 53 F (12 C)
Relative Humidity: 53%
Pressure (altimeter): 30.03 in. Hg (1017 hPa)
ob: YSWG 190500Z AUTO 03012KT 9999 // NCD 22/12 Q1017
cycle: 5

Station Type Date Time Source
YSWG TAF 2018/05/25 18:03 UTC NOAA

TAF YSWG 251649Z 2518/2608 07008KT CAVOK

Example: see airport list